Karlstad Sol, Sweden

7:02 PM CEST on September 05, 2015 (GMT +0200)
Zakrisdalsudden | | Change Station
CLOSE
Current Station
Personal Weather Station
Location: Karlstad, VäRMLANDS LäN
Elevation: 174 ft
Nearby Weather Stations

Elev 174 ft 59.36 °N, 13.43 °E | Updated 35 seconds ago

Light Rain Showers
Light Showers Rain
53.2 °F
Feels Like 53.2 °F
N
8.1
Wind Variable Wind from ENE
Gusts 12.3 mph

Today
High -- | Low -- °F
--% Chance of Precip.
Yesterday
High -- | Low -- °F
Precip. -- in
6:10 AM 7:57 PM
Waning Gibbous, 47% visible
Pressure 29.50 in
Visibility 5.0 miles
Clouds Scattered Clouds 2000 ft
Mostly Cloudy 3100 ft
Dew Point 53 °F
Humidity 98%
Rainfall 0.54 in
Snow Depth Not available.
UV 0.0 out of 12
Pollen Not available.
Air Quality Not available.
Flu Activity Not available.
METAR ESOK 051650Z 02010KT 8000 -SHRA SCT020 BKN031 11/10 Q0999
Pressure 29.50 in
Visibility 5.0 miles
Clouds Scattered Clouds 2000 ft
Mostly Cloudy 3100 ft
Dew Point 53 °F
Humidity 98%
Rainfall 0.54 in
Snow Depth Not available.
UV 0.0 out of 12
Pollen Not available.
Air Quality Not available.
Flu Activity Not available.
METAR ESOK 051650Z 02010KT 8000 -SHRA SCT020 BKN031 11/10 Q0999

10-Day Weather Forecast

×

Almanac

Astronomy

Sep. 05, 2015 Rise Set
Actual Time
Civil Twilight
Nautical Twilight
Astronomical Twilight
Moon
Length of Visible Light
Length of Day
Tomorrow will be .
, % of the Moon is Illuminated

Today's Extremes

Country Highs Country Lows

Community

WunderPhotos

Upload Photos

1,852,503 photos uploaded!

WunderBlogs® & News

Nearby

Air Quality

  Air Quality AQ Index Pollutant
Not available.

Snow Depth

Station Depth Elevation

Earthquake Activity

City Distance Mag. Time & Date
Minimum magnitude displayed is 2.5.

Coastal Water Temperatures

Place Temperature

Stations

Nearby Weather Stations

Station Location Temp. Windchill Dew Point Humidity Wind Precip. Elev Updated Type